createdAt,value
2023-05-24T00:04:05.673Z,97144.41
2023-05-24T00:08:59.088Z,97130.31
2023-05-24T00:13:52.395Z,97128.88
2023-05-24T00:18:47.219Z,97118.81
2023-05-24T00:23:42.118Z,97117.81
2023-05-24T00:28:35.923Z,97109.88
2023-05-24T00:33:29.787Z,97116.31
2023-05-24T00:38:24.623Z,97117.28
2023-05-24T00:43:19.186Z,97116.50
2023-05-24T00:48:13.477Z,97106.19
2023-05-24T00:53:08.172Z,97115.97
2023-05-24T00:58:03.474Z,97112.06
2023-05-24T01:02:57.178Z,97109.72
2023-05-24T01:08:05.278Z,97103.41
2023-05-24T01:13:08.455Z,97103.97
2023-05-24T01:18:10.101Z,97099.69
2023-05-24T01:23:17.773Z,97092.00
2023-05-24T01:28:13.941Z,97108.50
2023-05-24T01:33:07.762Z,97114.34
2023-05-24T01:38:01.156Z,97105.00
2023-05-24T01:43:05.618Z,97105.78
2023-05-24T01:48:18.762Z,97114.22
2023-05-24T01:53:19.125Z,97112.53
2023-05-24T01:58:17.016Z,97111.28
2023-05-24T02:03:14.615Z,97104.88
2023-05-24T02:08:08.968Z,97104.03
2023-05-24T02:13:02.307Z,97106.75
2023-05-24T02:17:55.732Z,97104.16
2023-05-24T02:22:50.592Z,97102.22
2023-05-24T02:27:47.125Z,97103.53
2023-05-24T02:32:40.962Z,97109.34
2023-05-24T02:37:34.377Z,97093.09
2023-05-24T02:42:31.297Z,97086.28
2023-05-24T02:47:27.187Z,97084.91
2023-05-24T02:52:21.857Z,97092.38
2023-05-24T02:57:15.540Z,97080.72
2023-05-24T03:02:15.897Z,97084.47
2023-05-24T03:07:09.327Z,97078.31
2023-05-24T03:12:02.631Z,97084.94
2023-05-24T03:16:56.202Z,97075.50
2023-05-24T03:21:52.349Z,97078.16
2023-05-24T03:26:47.692Z,97078.22
2023-05-24T03:31:41.158Z,97078.78
2023-05-24T03:36:37.632Z,97081.25
2023-05-24T03:41:32.498Z,97088.31
2023-05-24T03:46:25.794Z,97089.78
2023-05-24T03:51:19.223Z,97097.94
2023-05-24T03:56:12.515Z,97106.06
2023-05-24T04:01:08.142Z,97099.75
2023-05-24T04:06:01.579Z,97111.13
2023-05-24T04:10:54.983Z,97117.63
2023-05-24T04:15:48.320Z,97113.22
2023-05-24T04:20:43.172Z,97115.19
2023-05-24T04:25:36.553Z,97116.47
2023-05-24T04:30:30.398Z,97117.53
2023-05-24T04:35:23.948Z,97115.78
2023-05-24T04:40:20.767Z,97118.13
2023-05-24T04:45:14.270Z,97113.44
2023-05-24T04:50:08.775Z,97117.06
2023-05-24T04:55:02.127Z,97109.94
2023-05-24T04:59:56.822Z,97122.91
2023-05-24T05:04:50.163Z,97121.22
2023-05-24T05:09:43.498Z,97122.59
2023-05-24T05:14:38.264Z,97131.50
2023-05-24T05:19:33.045Z,97128.97
2023-05-24T05:24:26.587Z,97130.56
2023-05-24T05:29:20.922Z,97137.06
2023-05-24T05:34:15.516Z,97145.28
2023-05-24T05:39:10.637Z,97146.22
2023-05-24T05:44:03.950Z,97147.63
2023-05-24T05:48:57.470Z,97149.47
2023-05-24T05:53:51.000Z,97146.25
2023-05-24T05:58:45.715Z,97152.91
2023-05-24T06:03:39.231Z,97155.97
2023-05-24T06:08:35.223Z,97149.53
2023-05-24T06:13:29.105Z,97152.06
2023-05-24T06:18:23.885Z,97157.59
2023-05-24T06:23:17.187Z,97151.28
2023-05-24T06:28:10.672Z,97152.59
2023-05-24T06:33:04.185Z,97153.44
2023-05-24T06:38:00.001Z,97157.47
2023-05-24T06:42:53.376Z,97158.88
2023-05-24T06:47:46.997Z,97167.81
2023-05-24T06:52:40.460Z,97174.75
2023-05-24T06:57:35.168Z,97182.75
2023-05-24T07:02:29.035Z,97181.63
2023-05-24T07:07:22.515Z,97197.03
2023-05-24T07:12:15.921Z,97193.69
2023-05-24T07:17:10.709Z,97194.38
2023-05-24T07:22:04.149Z,97201.59
2023-05-24T07:26:57.902Z,97196.09
2023-05-24T07:31:51.519Z,97205.50
2023-05-24T07:36:48.491Z,97195.69
2023-05-24T07:41:42.336Z,97203.44
2023-05-24T07:46:35.742Z,97202.06
2023-05-24T07:51:29.100Z,97198.88
2023-05-24T07:56:23.885Z,97202.34
2023-05-24T08:01:18.540Z,97200.38
2023-05-24T08:06:12.903Z,97199.47
2023-05-24T08:11:06.382Z,97211.13
2023-05-24T08:16:01.186Z,97216.22
2023-05-24T08:20:54.553Z,97217.91
2023-05-24T08:25:47.860Z,97219.25
2023-05-24T08:30:41.235Z,97220.25
2023-05-24T08:35:36.972Z,97222.50
2023-05-24T08:40:30.330Z,97219.38
2023-05-24T08:45:24.383Z,97228.50
2023-05-24T08:50:18.028Z,97222.00
2023-05-24T08:55:13.304Z,97234.66
2023-05-24T09:00:09.611Z,97235.72
2023-05-24T09:05:04.633Z,97236.22
2023-05-24T09:10:02.300Z,97234.59
2023-05-24T09:14:58.504Z,97247.56
2023-05-24T09:19:53.984Z,97241.06
2023-05-24T09:24:49.452Z,97235.41
2023-05-24T09:29:46.283Z,97234.81
2023-05-24T09:34:42.578Z,97232.13
2023-05-24T09:39:36.726Z,97235.19
2023-05-24T09:44:30.122Z,97235.03
2023-05-24T09:49:23.428Z,97233.00
2023-05-24T09:54:18.755Z,97245.94
2023-05-24T09:59:15.961Z,97247.09
2023-05-24T10:04:10.385Z,97246.72
2023-05-24T10:09:07.044Z,97245.56
2023-05-24T10:14:05.464Z,97241.72
2023-05-24T10:18:58.866Z,97243.94
2023-05-24T10:24:00.179Z,97239.50
2023-05-24T10:29:05.720Z,97242.84
2023-05-24T10:34:07.568Z,97246.19
2023-05-24T10:39:03.732Z,97244.25
2023-05-24T10:44:09.182Z,97248.84
2023-05-24T10:49:06.832Z,97254.84
2023-05-24T10:54:12.790Z,97261.09
2023-05-24T10:59:06.789Z,97264.53
2023-05-24T11:04:11.317Z,97259.22
2023-05-24T11:09:06.204Z,97250.75
2023-05-24T11:14:02.204Z,97256.34
2023-05-24T11:18:57.095Z,97246.78
2023-05-24T11:23:52.362Z,97243.59
2023-05-24T11:28:47.793Z,97236.38
2023-05-24T11:33:43.742Z,97236.13
2023-05-24T11:38:37.545Z,97224.81
2023-05-24T11:43:32.639Z,97233.00
2023-05-24T11:48:26.246Z,97227.19
2023-05-24T11:53:21.610Z,97218.22
2023-05-24T11:58:24.213Z,97213.75
2023-05-24T12:03:19.174Z,97206.03
2023-05-24T12:08:15.549Z,97203.31
2023-05-24T12:13:24.096Z,97202.69
2023-05-24T12:18:22.216Z,97210.31
2023-05-24T12:23:16.949Z,97211.91
2023-05-24T12:28:10.350Z,97212.75
2023-05-24T12:33:03.843Z,97209.19
2023-05-24T12:38:05.059Z,97203.91
2023-05-24T12:42:59.345Z,97202.44
2023-05-24T12:47:53.523Z,97202.50
2023-05-24T12:52:47.860Z,97196.81
2023-05-24T12:57:43.157Z,97198.72
2023-05-24T13:02:38.119Z,97176.97
2023-05-24T13:07:33.494Z,97181.59
2023-05-24T13:12:27.186Z,97183.88
2023-05-24T13:17:22.130Z,97191.72
2023-05-24T13:22:15.917Z,97187.66
2023-05-24T13:27:09.777Z,97177.13
2023-05-24T13:32:03.192Z,97170.13
2023-05-24T13:37:00.088Z,97174.09
2023-05-24T13:41:53.935Z,97169.25
2023-05-24T13:46:48.327Z,97176.06
2023-05-24T13:51:42.264Z,97169.53
2023-05-24T13:56:37.270Z,97175.81
2023-05-24T14:01:32.023Z,97180.34
2023-05-24T14:06:25.810Z,97171.13
2023-05-24T14:11:19.737Z,97173.03
2023-05-24T14:16:14.790Z,97181.88
2023-05-24T14:21:08.316Z,97171.97
2023-05-24T14:26:02.801Z,97163.13
2023-05-24T14:30:56.151Z,97163.81
2023-05-24T14:35:51.988Z,97163.97
2023-05-24T14:40:47.546Z,97163.69
2023-05-24T14:45:42.916Z,97164.19
2023-05-24T14:50:36.785Z,97159.75
2023-05-24T14:55:31.420Z,97160.22
2023-05-24T15:00:26.923Z,97153.69
2023-05-24T15:05:21.915Z,97160.34
2023-05-24T15:10:15.283Z,97162.88
2023-05-24T15:15:12.553Z,97155.38
2023-05-24T15:20:07.364Z,97159.03
2023-05-24T15:25:01.032Z,97155.16
2023-05-24T15:29:58.984Z,97159.59
2023-05-24T15:34:53.782Z,97154.31
2023-05-24T15:39:47.200Z,97152.91
2023-05-24T15:44:40.541Z,97157.34
2023-05-24T15:49:33.862Z,97149.28
2023-05-24T15:54:28.601Z,97152.66
2023-05-24T15:59:21.879Z,97156.22
2023-05-24T16:04:15.702Z,97164.31
2023-05-24T16:09:09.437Z,97162.09
2023-05-24T16:14:05.342Z,97156.09
2023-05-24T16:18:58.653Z,97165.13
2023-05-24T16:23:52.006Z,97167.91
2023-05-24T16:28:45.538Z,97150.97
2023-05-24T16:33:41.178Z,97151.81
2023-05-24T16:38:34.706Z,97155.56
2023-05-24T16:43:28.016Z,97158.22
2023-05-24T16:48:28.234Z,97164.75
2023-05-24T16:53:24.700Z,97167.38
2023-05-24T16:58:18.324Z,97175.44
2023-05-24T17:03:11.792Z,97177.81
2023-05-24T17:08:05.339Z,97179.59
2023-05-24T17:13:00.242Z,97181.41
2023-05-24T17:17:53.694Z,97175.44
2023-05-24T17:22:47.342Z,97180.59
2023-05-24T17:27:40.723Z,97169.84
2023-05-24T17:32:35.467Z,97181.66
2023-05-24T17:37:28.786Z,97192.09
2023-05-24T17:42:22.064Z,97193.22
2023-05-24T17:47:17.446Z,97194.72
2023-05-24T17:52:14.496Z,97196.94
2023-05-24T17:57:07.939Z,97195.41
2023-05-24T18:02:01.333Z,97206.81
2023-05-24T18:06:55.375Z,97205.97
2023-05-24T18:11:51.623Z,97214.84
2023-05-24T18:16:46.100Z,97219.16
2023-05-24T18:21:40.226Z,97218.16
2023-05-24T18:26:33.623Z,97222.31
2023-05-24T18:31:28.368Z,97224.84
2023-05-24T18:36:21.930Z,97221.88
2023-05-24T18:41:16.622Z,97230.38
2023-05-24T18:46:13.286Z,97218.41
2023-05-24T18:51:08.652Z,97220.50
2023-05-24T18:56:02.083Z,97227.22
2023-05-24T19:00:55.741Z,97231.38
2023-05-24T19:05:49.233Z,97241.78
2023-05-24T19:10:44.303Z,97237.69
2023-05-24T19:15:37.897Z,97234.22
2023-05-24T19:20:31.289Z,97222.09
2023-05-24T19:25:24.666Z,97224.53
2023-05-24T19:30:19.493Z,97218.38
2023-05-24T19:35:13.432Z,97223.47
2023-05-24T19:40:09.288Z,97215.63
2023-05-24T19:45:02.787Z,97217.59
2023-05-24T19:49:57.443Z,97220.75
2023-05-24T19:54:50.922Z,97220.38
2023-05-24T19:59:44.251Z,97217.78
2023-05-24T20:04:41.544Z,97223.00
2023-05-24T20:09:36.414Z,97223.88
2023-05-24T20:14:31.712Z,97226.19
2023-05-24T20:19:26.255Z,97230.19
2023-05-24T20:24:19.647Z,97233.72
2023-05-24T20:29:14.493Z,97237.41
2023-05-24T20:34:07.940Z,97243.88
2023-05-24T20:39:01.243Z,97246.00
2023-05-24T20:43:54.860Z,97252.13
2023-05-24T20:48:49.597Z,97239.06
2023-05-24T20:53:42.934Z,97236.56
2023-05-24T20:58:36.231Z,97238.47
2023-05-24T21:03:30.086Z,97239.50
2023-05-24T21:08:24.855Z,97227.28
2023-05-24T21:13:20.422Z,97226.19
2023-05-24T21:18:13.858Z,97225.13
2023-05-24T21:23:07.140Z,97220.31
2023-05-24T21:28:01.884Z,97221.22
2023-05-24T21:32:55.245Z,97217.72
2023-05-24T21:37:48.791Z,97229.56
2023-05-24T21:42:42.168Z,97228.78
2023-05-24T21:47:37.190Z,97234.75
2023-05-24T21:52:30.764Z,97236.31
2023-05-24T21:57:26.430Z,97238.56
2023-05-24T22:02:20.186Z,97237.47
2023-05-24T22:07:14.990Z,97230.06
2023-05-24T22:12:08.535Z,97235.00
2023-05-24T22:17:01.842Z,97222.94
2023-05-24T22:21:56.320Z,97234.50
2023-05-24T22:26:52.426Z,97231.81
2023-05-24T22:31:46.084Z,97228.59
2023-05-24T22:36:39.521Z,97223.00
2023-05-24T22:41:32.949Z,97210.00
2023-05-24T22:46:27.665Z,97214.69
2023-05-24T22:51:21.483Z,97225.50
2023-05-24T22:56:14.947Z,97216.69
2023-05-24T23:01:08.297Z,97217.91
2023-05-24T23:06:04.520Z,97207.13
2023-05-24T23:10:58.238Z,97210.38
2023-05-24T23:15:51.560Z,97213.41
2023-05-24T23:20:45.305Z,97222.50
2023-05-24T23:25:40.097Z,97206.31
2023-05-24T23:30:33.437Z,97210.00
2023-05-24T23:35:26.837Z,97213.81
2023-05-24T23:40:20.153Z,97216.50
2023-05-24T23:45:16.525Z,97214.66
2023-05-24T23:50:11.171Z,97200.13
2023-05-24T23:55:05.393Z,97200.66
2023-05-24T23:59:58.701Z,97198.63
